sensor_id;sensor_type;location;lat;lon;timestamp;P1;durP1;ratioP1;P2;durP2;ratioP2
61915;SDS011;47868;51.326;6.550;2024-02-15T00:03:07;12.45;;;7.75;;
61915;SDS011;47868;51.326;6.550;2024-02-15T00:05:33;16.23;;;8.85;;
61915;SDS011;47868;51.326;6.550;2024-02-15T00:08:02;11.20;;;8.48;;
61915;SDS011;47868;51.326;6.550;2024-02-15T00:10:29;13.13;;;8.60;;
61915;SDS011;47868;51.326;6.550;2024-02-15T00:12:55;12.35;;;8.07;;
61915;SDS011;47868;51.326;6.550;2024-02-15T00:15:21;16.70;;;9.02;;
61915;SDS011;47868;51.326;6.550;2024-02-15T00:17:48;19.08;;;9.30;;
61915;SDS011;47868;51.326;6.550;2024-02-15T00:20:14;15.48;;;8.88;;
61915;SDS011;47868;51.326;6.550;2024-02-15T00:22:42;12.95;;;8.77;;
61915;SDS011;47868;51.326;6.550;2024-02-15T00:25:09;14.15;;;8.40;;
61915;SDS011;47868;51.326;6.550;2024-02-15T00:27:36;12.45;;;9.23;;
61915;SDS011;47868;51.326;6.550;2024-02-15T00:30:02;16.88;;;8.73;;
61915;SDS011;47868;51.326;6.550;2024-02-15T00:32:30;15.95;;;10.05;;
61915;SDS011;47868;51.326;6.550;2024-02-15T00:34:56;12.88;;;9.57;;
61915;SDS011;47868;51.326;6.550;2024-02-15T00:37:22;12.88;;;9.45;;
61915;SDS011;47868;51.326;6.550;2024-02-15T00:39:47;18.92;;;9.77;;
61915;SDS011;47868;51.326;6.550;2024-02-15T00:42:13;16.70;;;9.07;;
61915;SDS011;47868;51.326;6.550;2024-02-15T00:44:40;14.60;;;9.38;;
61915;SDS011;47868;51.326;6.550;2024-02-15T00:47:07;15.80;;;10.02;;
61915;SDS011;47868;51.326;6.550;2024-02-15T00:49:33;10.68;;;8.95;;
61915;SDS011;47868;51.326;6.550;2024-02-15T00:52:00;14.52;;;9.05;;
61915;SDS011;47868;51.326;6.550;2024-02-15T00:54:26;10.88;;;8.48;;
61915;SDS011;47868;51.326;6.550;2024-02-15T00:56:52;11.20;;;8.95;;
61915;SDS011;47868;51.326;6.550;2024-02-15T00:59:18;20.75;;;9.57;;
61915;SDS011;47868;51.326;6.550;2024-02-15T01:01:44;17.02;;;9.10;;
61915;SDS011;47868;51.326;6.550;2024-02-15T01:04:12;15.15;;;8.43;;
61915;SDS011;47868;51.326;6.550;2024-02-15T01:06:38;15.88;;;9.18;;
61915;SDS011;47868;51.326;6.550;2024-02-15T01:09:04;10.90;;;7.93;;
61915;SDS011;47868;51.326;6.550;2024-02-15T01:11:30;14.40;;;8.25;;
61915;SDS011;47868;51.326;6.550;2024-02-15T01:14:02;14.77;;;8.60;;
61915;SDS011;47868;51.326;6.550;2024-02-15T01:16:28;17.65;;;8.32;;
61915;SDS011;47868;51.326;6.550;2024-02-15T01:18:54;15.93;;;7.50;;
61915;SDS011;47868;51.326;6.550;2024-02-15T01:21:20;14.25;;;7.40;;
61915;SDS011;47868;51.326;6.550;2024-02-15T01:23:47;15.93;;;7.80;;
61915;SDS011;47868;51.326;6.550;2024-02-15T01:26:13;13.80;;;7.22;;
61915;SDS011;47868;51.326;6.550;2024-02-15T01:28:39;16.02;;;6.45;;
61915;SDS011;47868;51.326;6.550;2024-02-15T01:31:08;11.20;;;6.60;;
61915;SDS011;47868;51.326;6.550;2024-02-15T01:33:35;10.80;;;6.88;;
61915;SDS011;47868;51.326;6.550;2024-02-15T01:36:01;11.57;;;6.65;;
61915;SDS011;47868;51.326;6.550;2024-02-15T01:38:27;20.60;;;7.10;;
61915;SDS011;47868;51.326;6.550;2024-02-15T01:40:53;11.60;;;5.72;;
61915;SDS011;47868;51.326;6.550;2024-02-15T01:43:19;8.38;;;5.38;;
61915;SDS011;47868;51.326;6.550;2024-02-15T01:45:45;11.25;;;5.82;;
61915;SDS011;47868;51.326;6.550;2024-02-15T01:48:14;13.63;;;5.70;;
61915;SDS011;47868;51.326;6.550;2024-02-15T01:50:41;12.18;;;5.85;;
61915;SDS011;47868;51.326;6.550;2024-02-15T01:53:08;13.00;;;6.65;;
61915;SDS011;47868;51.326;6.550;2024-02-15T01:55:35;10.65;;;5.57;;
61915;SDS011;47868;51.326;6.550;2024-02-15T01:58:01;15.00;;;5.65;;
61915;SDS011;47868;51.326;6.550;2024-02-15T02:00:27;11.32;;;6.43;;
61915;SDS011;47868;51.326;6.550;2024-02-15T02:02:53;13.82;;;5.35;;
61915;SDS011;47868;51.326;6.550;2024-02-15T02:05:24;11.27;;;5.75;;
61915;SDS011;47868;51.326;6.550;2024-02-15T02:07:51;12.13;;;5.70;;
61915;SDS011;47868;51.326;6.550;2024-02-15T02:10:17;11.70;;;5.85;;
61915;SDS011;47868;51.326;6.550;2024-02-15T02:12:43;13.77;;;5.65;;
61915;SDS011;47868;51.326;6.550;2024-02-15T02:15:09;10.85;;;5.55;;
61915;SDS011;47868;51.326;6.550;2024-02-15T02:17:36;9.75;;;6.20;;
61915;SDS011;47868;51.326;6.550;2024-02-15T02:20:02;11.35;;;5.43;;
61915;SDS011;47868;51.326;6.550;2024-02-15T02:22:33;11.63;;;5.85;;
61915;SDS011;47868;51.326;6.550;2024-02-15T02:25:05;10.50;;;5.75;;
61915;SDS011;47868;51.326;6.550;2024-02-15T02:27:33;11.55;;;5.38;;
61915;SDS011;47868;51.326;6.550;2024-02-15T02:29:59;7.40;;;4.63;;
61915;SDS011;47868;51.326;6.550;2024-02-15T02:32:28;10.57;;;5.25;;
61915;SDS011;47868;51.326;6.550;2024-02-15T02:34:54;14.38;;;5.40;;
61915;SDS011;47868;51.326;6.550;2024-02-15T02:37:25;12.88;;;4.93;;
61915;SDS011;47868;51.326;6.550;2024-02-15T02:39:50;11.55;;;4.68;;
61915;SDS011;47868;51.326;6.550;2024-02-15T02:42:16;11.73;;;4.75;;
61915;SDS011;47868;51.326;6.550;2024-02-15T02:44:42;14.75;;;5.05;;
61915;SDS011;47868;51.326;6.550;2024-02-15T02:47:09;11.95;;;5.28;;
61915;SDS011;47868;51.326;6.550;2024-02-15T02:49:35;14.25;;;5.18;;
61915;SDS011;47868;51.326;6.550;2024-02-15T02:52:02;9.45;;;4.25;;
61915;SDS011;47868;51.326;6.550;2024-02-15T02:54:28;11.50;;;5.15;;
61915;SDS011;47868;51.326;6.550;2024-02-15T02:56:54;10.63;;;4.60;;
61915;SDS011;47868;51.326;6.550;2024-02-15T02:59:20;8.43;;;4.47;;
61915;SDS011;47868;51.326;6.550;2024-02-15T03:01:46;10.50;;;5.30;;
61915;SDS011;47868;51.326;6.550;2024-02-15T03:04:14;10.40;;;4.88;;
61915;SDS011;47868;51.326;6.550;2024-02-15T03:06:42;11.25;;;5.40;;
61915;SDS011;47868;51.326;6.550;2024-02-15T03:09:08;11.38;;;4.97;;
61915;SDS011;47868;51.326;6.550;2024-02-15T03:11:35;10.30;;;4.85;;
61915;SDS011;47868;51.326;6.550;2024-02-15T03:14:01;8.88;;;5.03;;
61915;SDS011;47868;51.326;6.550;2024-02-15T03:16:30;8.93;;;4.85;;
61915;SDS011;47868;51.326;6.550;2024-02-15T03:18:56;15.48;;;4.85;;
61915;SDS011;47868;51.326;6.550;2024-02-15T03:21:22;12.95;;;5.22;;
61915;SDS011;47868;51.326;6.550;2024-02-15T03:23:48;10.38;;;4.90;;
61915;SDS011;47868;51.326;6.550;2024-02-15T03:26:14;10.73;;;4.85;;
61915;SDS011;47868;51.326;6.550;2024-02-15T03:28:40;11.98;;;5.10;;
61915;SDS011;47868;51.326;6.550;2024-02-15T03:31:06;9.90;;;4.78;;
61915;SDS011;47868;51.326;6.550;2024-02-15T03:33:32;8.75;;;4.60;;
61915;SDS011;47868;51.326;6.550;2024-02-15T03:35:59;10.80;;;4.60;;
61915;SDS011;47868;51.326;6.550;2024-02-15T03:38:26;9.10;;;4.88;;
61915;SDS011;47868;51.326;6.550;2024-02-15T03:40:54;11.50;;;4.45;;
61915;SDS011;47868;51.326;6.550;2024-02-15T03:43:21;9.63;;;4.95;;
61915;SDS011;47868;51.326;6.550;2024-02-15T03:45:48;10.85;;;4.97;;
61915;SDS011;47868;51.326;6.550;2024-02-15T03:48:14;10.43;;;4.75;;
61915;SDS011;47868;51.326;6.550;2024-02-15T03:50:40;7.97;;;4.97;;
61915;SDS011;47868;51.326;6.550;2024-02-15T03:53:08;9.43;;;4.90;;
61915;SDS011;47868;51.326;6.550;2024-02-15T03:55:36;10.05;;;4.43;;
61915;SDS011;47868;51.326;6.550;2024-02-15T03:58:02;10.25;;;4.53;;
61915;SDS011;47868;51.326;6.550;2024-02-15T04:00:28;11.40;;;4.70;;
61915;SDS011;47868;51.326;6.550;2024-02-15T04:02:54;10.05;;;4.63;;
61915;SDS011;47868;51.326;6.550;2024-02-15T04:05:21;10.75;;;4.47;;
61915;SDS011;47868;51.326;6.550;2024-02-15T04:07:48;8.65;;;4.97;;
61915;SDS011;47868;51.326;6.550;2024-02-15T04:10:14;9.05;;;4.10;;
61915;SDS011;47868;51.326;6.550;2024-02-15T04:12:44;13.48;;;4.40;;
61915;SDS011;47868;51.326;6.550;2024-02-15T04:15:10;15.30;;;4.15;;
61915;SDS011;47868;51.326;6.550;2024-02-15T04:17:41;7.30;;;3.78;;
61915;SDS011;47868;51.326;6.550;2024-02-15T04:20:09;8.88;;;4.00;;
61915;SDS011;47868;51.326;6.550;2024-02-15T04:22:36;8.38;;;4.13;;
61915;SDS011;47868;51.326;6.550;2024-02-15T04:25:05;7.72;;;3.67;;
61915;SDS011;47868;51.326;6.550;2024-02-15T04:27:32;9.77;;;3.70;;
61915;SDS011;47868;51.326;6.550;2024-02-15T04:29:58;10.68;;;3.95;;
61915;SDS011;47868;51.326;6.550;2024-02-15T04:32:24;7.63;;;3.65;;
61915;SDS011;47868;51.326;6.550;2024-02-15T04:34:50;9.80;;;3.75;;
61915;SDS011;47868;51.326;6.550;2024-02-15T04:37:17;11.68;;;3.40;;
61915;SDS011;47868;51.326;6.550;2024-02-15T04:39:43;13.75;;;4.00;;
61915;SDS011;47868;51.326;6.550;2024-02-15T04:42:09;12.40;;;3.53;;
61915;SDS011;47868;51.326;6.550;2024-02-15T04:44:39;7.80;;;4.10;;
61915;SDS011;47868;51.326;6.550;2024-02-15T04:47:05;8.23;;;4.38;;
61915;SDS011;47868;51.326;6.550;2024-02-15T04:49:32;10.43;;;4.00;;
61915;SDS011;47868;51.326;6.550;2024-02-15T04:51:58;8.75;;;4.35;;
61915;SDS011;47868;51.326;6.550;2024-02-15T04:54:27;11.73;;;4.43;;
61915;SDS011;47868;51.326;6.550;2024-02-15T04:56:54;11.63;;;4.60;;
61915;SDS011;47868;51.326;6.550;2024-02-15T04:59:21;11.30;;;4.38;;
61915;SDS011;47868;51.326;6.550;2024-02-15T05:01:51;7.07;;;4.28;;
61915;SDS011;47868;51.326;6.550;2024-02-15T05:04:17;10.93;;;4.80;;
61915;SDS011;47868;51.326;6.550;2024-02-15T05:06:43;9.88;;;3.90;;
61915;SDS011;47868;51.326;6.550;2024-02-15T05:09:10;9.98;;;4.35;;
61915;SDS011;47868;51.326;6.550;2024-02-15T05:11:36;9.75;;;4.10;;
61915;SDS011;47868;51.326;6.550;2024-02-15T05:14:13;12.90;;;4.28;;
61915;SDS011;47868;51.326;6.550;2024-02-15T05:16:44;8.75;;;4.53;;
61915;SDS011;47868;51.326;6.550;2024-02-15T05:19:12;11.88;;;3.80;;
61915;SDS011;47868;51.326;6.550;2024-02-15T05:21:38;7.10;;;3.10;;
61915;SDS011;47868;51.326;6.550;2024-02-15T05:24:05;7.20;;;3.47;;
61915;SDS011;47868;51.326;6.550;2024-02-15T05:26:31;7.28;;;4.03;;
61915;SDS011;47868;51.326;6.550;2024-02-15T05:28:57;7.07;;;3.78;;
61915;SDS011;47868;51.326;6.550;2024-02-15T05:31:23;6.97;;;3.28;;
61915;SDS011;47868;51.326;6.550;2024-02-15T05:33:51;6.60;;;3.50;;
61915;SDS011;47868;51.326;6.550;2024-02-15T05:36:17;7.90;;;3.25;;
61915;SDS011;47868;51.326;6.550;2024-02-15T05:38:48;4.88;;;3.20;;
61915;SDS011;47868;51.326;6.550;2024-02-15T05:41:15;3.72;;;3.00;;
61915;SDS011;47868;51.326;6.550;2024-02-15T05:43:41;6.32;;;3.03;;
61915;SDS011;47868;51.326;6.550;2024-02-15T05:46:07;5.78;;;2.90;;
61915;SDS011;47868;51.326;6.550;2024-02-15T05:48:34;9.20;;;3.17;;
61915;SDS011;47868;51.326;6.550;2024-02-15T05:51:03;6.55;;;2.90;;
61915;SDS011;47868;51.326;6.550;2024-02-15T05:53:30;3.30;;;2.55;;
61915;SDS011;47868;51.326;6.550;2024-02-15T05:55:56;4.35;;;3.00;;
61915;SDS011;47868;51.326;6.550;2024-02-15T05:58:25;5.15;;;2.97;;
61915;SDS011;47868;51.326;6.550;2024-02-15T06:00:51;7.63;;;3.10;;
61915;SDS011;47868;51.326;6.550;2024-02-15T06:03:18;8.55;;;3.00;;
61915;SDS011;47868;51.326;6.550;2024-02-15T06:05:48;8.50;;;3.15;;
61915;SDS011;47868;51.326;6.550;2024-02-15T06:08:14;7.57;;;3.00;;
61915;SDS011;47868;51.326;6.550;2024-02-15T06:10:40;8.95;;;3.13;;
61915;SDS011;47868;51.326;6.550;2024-02-15T06:13:06;6.13;;;2.80;;
61915;SDS011;47868;51.326;6.550;2024-02-15T06:15:35;6.07;;;3.03;;
61915;SDS011;47868;51.326;6.550;2024-02-15T06:18:02;4.90;;;2.60;;
61915;SDS011;47868;51.326;6.550;2024-02-15T06:20:34;4.90;;;3.05;;
61915;SDS011;47868;51.326;6.550;2024-02-15T06:23:00;6.43;;;2.72;;
61915;SDS011;47868;51.326;6.550;2024-02-15T06:25:29;7.10;;;3.03;;
61915;SDS011;47868;51.326;6.550;2024-02-15T06:27:55;5.03;;;2.75;;
61915;SDS011;47868;51.326;6.550;2024-02-15T06:30:26;8.23;;;3.03;;
61915;SDS011;47868;51.326;6.550;2024-02-15T06:33:11;4.45;;;3.10;;
61915;SDS011;47868;51.326;6.550;2024-02-15T06:35:56;3.55;;;2.55;;
61915;SDS011;47868;51.326;6.550;2024-02-15T06:38:40;8.43;;;3.60;;
61915;SDS011;47868;51.326;6.550;2024-02-15T06:41:25;7.85;;;3.35;;
61915;SDS011;47868;51.326;6.550;2024-02-15T06:43:53;6.90;;;3.45;;
61915;SDS011;47868;51.326;6.550;2024-02-15T06:46:20;6.60;;;3.65;;
61915;SDS011;47868;51.326;6.550;2024-02-15T06:48:46;5.15;;;3.20;;
61915;SDS011;47868;51.326;6.550;2024-02-15T06:51:13;8.80;;;3.58;;
61915;SDS011;47868;51.326;6.550;2024-02-15T06:53:40;6.85;;;3.00;;
61915;SDS011;47868;51.326;6.550;2024-02-15T06:56:08;7.07;;;3.45;;
61915;SDS011;47868;51.326;6.550;2024-02-15T06:58:35;7.38;;;3.70;;
61915;SDS011;47868;51.326;6.550;2024-02-15T07:01:01;6.20;;;3.33;;
61915;SDS011;47868;51.326;6.550;2024-02-15T07:03:30;9.30;;;3.50;;
61915;SDS011;47868;51.326;6.550;2024-02-15T07:05:59;8.02;;;3.58;;
61915;SDS011;47868;51.326;6.550;2024-02-15T07:08:25;9.27;;;3.63;;
61915;SDS011;47868;51.326;6.550;2024-02-15T07:10:51;14.90;;;5.90;;
61915;SDS011;47868;51.326;6.550;2024-02-15T07:13:17;10.60;;;6.13;;
61915;SDS011;47868;51.326;6.550;2024-02-15T07:15:45;6.95;;;5.60;;
61915;SDS011;47868;51.326;6.550;2024-02-15T07:18:12;9.27;;;4.78;;
61915;SDS011;47868;51.326;6.550;2024-02-15T07:20:38;9.00;;;4.60;;
61915;SDS011;47868;51.326;6.550;2024-02-15T07:23:05;9.70;;;4.65;;
61915;SDS011;47868;51.326;6.550;2024-02-15T07:25:31;8.90;;;4.70;;
61915;SDS011;47868;51.326;6.550;2024-02-15T07:27:57;8.75;;;4.47;;
61915;SDS011;47868;51.326;6.550;2024-02-15T07:30:23;6.88;;;4.03;;
61915;SDS011;47868;51.326;6.550;2024-02-15T07:32:49;7.22;;;3.83;;
61915;SDS011;47868;51.326;6.550;2024-02-15T07:35:16;7.20;;;4.47;;
61915;SDS011;47868;51.326;6.550;2024-02-15T07:37:50;8.35;;;4.00;;
61915;SDS011;47868;51.326;6.550;2024-02-15T07:40:18;6.80;;;3.88;;
61915;SDS011;47868;51.326;6.550;2024-02-15T07:42:47;8.90;;;4.32;;
61915;SDS011;47868;51.326;6.550;2024-02-15T07:45:12;8.77;;;4.00;;
61915;SDS011;47868;51.326;6.550;2024-02-15T07:47:39;11.75;;;3.85;;
61915;SDS011;47868;51.326;6.550;2024-02-15T07:50:05;8.52;;;3.90;;
61915;SDS011;47868;51.326;6.550;2024-02-15T07:52:31;9.15;;;3.95;;
61915;SDS011;47868;51.326;6.550;2024-02-15T07:54:58;5.50;;;3.85;;
61915;SDS011;47868;51.326;6.550;2024-02-15T07:57:24;5.65;;;3.63;;
61915;SDS011;47868;51.326;6.550;2024-02-15T07:59:51;7.75;;;4.32;;
61915;SDS011;47868;51.326;6.550;2024-02-15T08:02:17;9.32;;;3.75;;
61915;SDS011;47868;51.326;6.550;2024-02-15T08:04:47;12.63;;;4.05;;
61915;SDS011;47868;51.326;6.550;2024-02-15T08:07:13;7.72;;;3.65;;
61915;SDS011;47868;51.326;6.550;2024-02-15T08:09:40;10.25;;;4.90;;
61915;SDS011;47868;51.326;6.550;2024-02-15T08:12:08;10.02;;;5.45;;
61915;SDS011;47868;51.326;6.550;2024-02-15T08:14:34;12.02;;;5.53;;
61915;SDS011;47868;51.326;6.550;2024-02-15T08:17:00;11.23;;;5.18;;
61915;SDS011;47868;51.326;6.550;2024-02-15T08:19:27;8.27;;;5.03;;
61915;SDS011;47868;51.326;6.550;2024-02-15T08:21:54;8.15;;;4.28;;
61915;SDS011;47868;51.326;6.550;2024-02-15T08:24:24;10.35;;;4.78;;
61915;SDS011;47868;51.326;6.550;2024-02-15T08:26:51;9.30;;;4.75;;
61915;SDS011;47868;51.326;6.550;2024-02-15T08:29:19;10.25;;;4.28;;
61915;SDS011;47868;51.326;6.550;2024-02-15T08:31:48;9.88;;;4.57;;
61915;SDS011;47868;51.326;6.550;2024-02-15T08:34:16;11.75;;;4.13;;
61915;SDS011;47868;51.326;6.550;2024-02-15T08:36:45;13.02;;;4.10;;
61915;SDS011;47868;51.326;6.550;2024-02-15T08:39:16;8.32;;;4.10;;
61915;SDS011;47868;51.326;6.550;2024-02-15T08:41:42;8.73;;;4.40;;
61915;SDS011;47868;51.326;6.550;2024-02-15T08:44:08;7.20;;;4.28;;
61915;SDS011;47868;51.326;6.550;2024-02-15T08:46:37;10.20;;;4.60;;
61915;SDS011;47868;51.326;6.550;2024-02-15T08:49:03;9.07;;;4.60;;
61915;SDS011;47868;51.326;6.550;2024-02-15T08:51:29;9.77;;;4.25;;
61915;SDS011;47868;51.326;6.550;2024-02-15T08:54:01;10.93;;;4.07;;
61915;SDS011;47868;51.326;6.550;2024-02-15T08:56:27;6.43;;;4.18;;
61915;SDS011;47868;51.326;6.550;2024-02-15T08:58:54;8.60;;;4.45;;
61915;SDS011;47868;51.326;6.550;2024-02-15T09:01:20;8.45;;;4.65;;
61915;SDS011;47868;51.326;6.550;2024-02-15T09:03:47;9.65;;;4.05;;
61915;SDS011;47868;51.326;6.550;2024-02-15T09:06:15;13.20;;;4.68;;
61915;SDS011;47868;51.326;6.550;2024-02-15T09:08:42;11.13;;;4.18;;
61915;SDS011;47868;51.326;6.550;2024-02-15T09:11:09;10.50;;;4.15;;
61915;SDS011;47868;51.326;6.550;2024-02-15T09:13:39;7.57;;;3.95;;
61915;SDS011;47868;51.326;6.550;2024-02-15T09:16:08;11.18;;;4.68;;
61915;SDS011;47868;51.326;6.550;2024-02-15T09:18:36;9.15;;;4.93;;
61915;SDS011;47868;51.326;6.550;2024-02-15T09:21:09;8.65;;;4.35;;
61915;SDS011;47868;51.326;6.550;2024-02-15T09:23:36;8.05;;;4.32;;
61915;SDS011;47868;51.326;6.550;2024-02-15T09:26:05;8.77;;;4.80;;
61915;SDS011;47868;51.326;6.550;2024-02-15T09:28:36;5.95;;;4.30;;
61915;SDS011;47868;51.326;6.550;2024-02-15T09:31:03;8.82;;;4.40;;
61915;SDS011;47868;51.326;6.550;2024-02-15T09:33:29;12.30;;;4.85;;
61915;SDS011;47868;51.326;6.550;2024-02-15T09:35:56;7.78;;;4.30;;
61915;SDS011;47868;51.326;6.550;2024-02-15T09:38:22;6.43;;;3.83;;
61915;SDS011;47868;51.326;6.550;2024-02-15T09:40:51;10.35;;;4.90;;
61915;SDS011;47868;51.326;6.550;2024-02-15T09:43:17;8.77;;;4.80;;
61915;SDS011;47868;51.326;6.550;2024-02-15T09:45:46;9.13;;;4.85;;
61915;SDS011;47868;51.326;6.550;2024-02-15T09:48:14;8.10;;;5.00;;
61915;SDS011;47868;51.326;6.550;2024-02-15T09:50:45;7.47;;;4.63;;
61915;SDS011;47868;51.326;6.550;2024-02-15T09:53:12;11.02;;;4.88;;
61915;SDS011;47868;51.326;6.550;2024-02-15T09:55:40;7.10;;;4.53;;
61915;SDS011;47868;51.326;6.550;2024-02-15T09:58:09;14.98;;;4.97;;
61915;SDS011;47868;51.326;6.550;2024-02-15T10:00:42;11.52;;;5.38;;
61915;SDS011;47868;51.326;6.550;2024-02-15T10:03:12;7.25;;;5.13;;
61915;SDS011;47868;51.326;6.550;2024-02-15T10:05:43;11.13;;;5.55;;
61915;SDS011;47868;51.326;6.550;2024-02-15T10:08:13;8.57;;;4.70;;
61915;SDS011;47868;51.326;6.550;2024-02-15T10:10:43;7.53;;;3.97;;
61915;SDS011;47868;51.326;6.550;2024-02-15T10:13:12;8.10;;;4.15;;
61915;SDS011;47868;51.326;6.550;2024-02-15T10:15:39;5.40;;;3.90;;
61915;SDS011;47868;51.326;6.550;2024-02-15T10:18:10;10.52;;;4.45;;
61915;SDS011;47868;51.326;6.550;2024-02-15T10:20:38;9.38;;;4.18;;
61915;SDS011;47868;51.326;6.550;2024-02-15T10:23:16;7.00;;;3.85;;
61915;SDS011;47868;51.326;6.550;2024-02-15T10:25:47;8.35;;;4.15;;
61915;SDS011;47868;51.326;6.550;2024-02-15T10:28:20;7.13;;;3.78;;
61915;SDS011;47868;51.326;6.550;2024-02-15T10:30:48;7.78;;;3.85;;
61915;SDS011;47868;51.326;6.550;2024-02-15T10:33:18;9.55;;;3.42;;
61915;SDS011;47868;51.326;6.550;2024-02-15T10:35:50;10.65;;;4.07;;
61915;SDS011;47868;51.326;6.550;2024-02-15T10:38:17;7.80;;;4.15;;
61915;SDS011;47868;51.326;6.550;2024-02-15T10:40:45;6.75;;;3.72;;
61915;SDS011;47868;51.326;6.550;2024-02-15T10:43:16;8.38;;;3.75;;
61915;SDS011;47868;51.326;6.550;2024-02-15T10:45:46;7.07;;;3.67;;
61915;SDS011;47868;51.326;6.550;2024-02-15T10:48:15;7.82;;;3.83;;
61915;SDS011;47868;51.326;6.550;2024-02-15T10:50:45;8.77;;;3.67;;
61915;SDS011;47868;51.326;6.550;2024-02-15T10:53:21;5.43;;;3.50;;
61915;SDS011;47868;51.326;6.550;2024-02-15T10:55:53;5.50;;;3.83;;
61915;SDS011;47868;51.326;6.550;2024-02-15T10:58:21;6.78;;;3.83;;
61915;SDS011;47868;51.326;6.550;2024-02-15T11:00:53;8.18;;;4.07;;
61915;SDS011;47868;51.326;6.550;2024-02-15T11:03:23;5.95;;;3.50;;
61915;SDS011;47868;51.326;6.550;2024-02-15T11:05:57;13.30;;;3.85;;
61915;SDS011;47868;51.326;6.550;2024-02-15T11:08:26;6.25;;;3.53;;
61915;SDS011;47868;51.326;6.550;2024-02-15T11:13:39;7.00;;;3.15;;
61915;SDS011;47868;51.326;6.550;2024-02-15T11:16:07;5.57;;;2.97;;
61915;SDS011;47868;51.326;6.550;2024-02-15T11:18:46;7.65;;;3.70;;
61915;SDS011;47868;51.326;6.550;2024-02-15T11:27:08;4.35;;;2.90;;
61915;SDS011;47868;51.326;6.550;2024-02-15T11:35:12;6.55;;;3.03;;
61915;SDS011;47868;51.326;6.550;2024-02-15T11:43:52;7.53;;;3.05;;
61915;SDS011;47868;51.326;6.550;2024-02-15T11:49:36;6.05;;;2.58;;
61915;SDS011;47868;51.326;6.550;2024-02-15T11:52:10;8.43;;;3.08;;
61915;SDS011;47868;51.326;6.550;2024-02-15T11:54:44;6.43;;;2.78;;
61915;SDS011;47868;51.326;6.550;2024-02-15T11:57:12;8.27;;;2.55;;
61915;SDS011;47868;51.326;6.550;2024-02-15T11:59:51;6.38;;;2.60;;
61915;SDS011;47868;51.326;6.550;2024-02-15T12:02:41;3.40;;;2.53;;
61915;SDS011;47868;51.326;6.550;2024-02-15T12:05:26;10.00;;;3.15;;
61915;SDS011;47868;51.326;6.550;2024-02-15T12:08:11;4.88;;;2.63;;
61915;SDS011;47868;51.326;6.550;2024-02-15T12:11:01;8.15;;;2.40;;
61915;SDS011;47868;51.326;6.550;2024-02-15T12:13:50;4.95;;;2.35;;
61915;SDS011;47868;51.326;6.550;2024-02-15T12:16:37;6.75;;;2.67;;
61915;SDS011;47868;51.326;6.550;2024-02-15T12:19:22;5.82;;;2.50;;
61915;SDS011;47868;51.326;6.550;2024-02-15T12:21:49;4.80;;;2.20;;
61915;SDS011;47868;51.326;6.550;2024-02-15T12:24:15;4.10;;;2.25;;
61915;SDS011;47868;51.326;6.550;2024-02-15T12:26:42;6.72;;;2.47;;
61915;SDS011;47868;51.326;6.550;2024-02-15T12:29:08;7.10;;;2.65;;
61915;SDS011;47868;51.326;6.550;2024-02-15T12:31:35;6.32;;;2.40;;
61915;SDS011;47868;51.326;6.550;2024-02-15T12:34:03;5.70;;;2.60;;
61915;SDS011;47868;51.326;6.550;2024-02-15T12:36:33;4.55;;;2.33;;
61915;SDS011;47868;51.326;6.550;2024-02-15T12:39:05;6.75;;;2.30;;
61915;SDS011;47868;51.326;6.550;2024-02-15T12:41:39;6.80;;;2.35;;
61915;SDS011;47868;51.326;6.550;2024-02-15T12:44:08;5.15;;;2.05;;
61915;SDS011;47868;51.326;6.550;2024-02-15T12:46:35;5.85;;;2.30;;
61915;SDS011;47868;51.326;6.550;2024-02-15T12:49:10;4.43;;;2.40;;
61915;SDS011;47868;51.326;6.550;2024-02-15T12:51:38;5.88;;;2.47;;
61915;SDS011;47868;51.326;6.550;2024-02-15T12:54:08;4.90;;;2.05;;
61915;SDS011;47868;51.326;6.550;2024-02-15T12:56:36;3.25;;;2.10;;
61915;SDS011;47868;51.326;6.550;2024-02-15T12:59:02;7.35;;;2.78;;
61915;SDS011;47868;51.326;6.550;2024-02-15T13:01:28;5.53;;;2.42;;
61915;SDS011;47868;51.326;6.550;2024-02-15T13:03:54;5.30;;;2.40;;
61915;SDS011;47868;51.326;6.550;2024-02-15T13:06:20;5.82;;;2.53;;
61915;SDS011;47868;51.326;6.550;2024-02-15T13:08:49;8.13;;;2.45;;
61915;SDS011;47868;51.326;6.550;2024-02-15T13:11:15;6.97;;;2.35;;
61915;SDS011;47868;51.326;6.550;2024-02-15T13:13:41;5.20;;;2.13;;
61915;SDS011;47868;51.326;6.550;2024-02-15T13:16:07;6.35;;;2.28;;
61915;SDS011;47868;51.326;6.550;2024-02-15T13:18:33;3.63;;;2.30;;
61915;SDS011;47868;51.326;6.550;2024-02-15T13:21:05;6.57;;;2.05;;
61915;SDS011;47868;51.326;6.550;2024-02-15T13:23:31;5.43;;;2.22;;
61915;SDS011;47868;51.326;6.550;2024-02-15T13:25:58;7.88;;;2.13;;
61915;SDS011;47868;51.326;6.550;2024-02-15T13:28:29;6.47;;;2.42;;
61915;SDS011;47868;51.326;6.550;2024-02-15T13:30:56;3.75;;;2.00;;
61915;SDS011;47868;51.326;6.550;2024-02-15T13:33:27;3.70;;;1.95;;
61915;SDS011;47868;51.326;6.550;2024-02-15T13:35:57;5.28;;;2.03;;
61915;SDS011;47868;51.326;6.550;2024-02-15T13:38:23;5.25;;;2.28;;
61915;SDS011;47868;51.326;6.550;2024-02-15T13:40:50;5.40;;;1.90;;
61915;SDS011;47868;51.326;6.550;2024-02-15T13:43:21;4.65;;;1.85;;
61915;SDS011;47868;51.326;6.550;2024-02-15T13:45:48;4.50;;;1.83;;
61915;SDS011;47868;51.326;6.550;2024-02-15T13:48:14;4.18;;;1.83;;
61915;SDS011;47868;51.326;6.550;2024-02-15T13:50:41;6.22;;;2.05;;
61915;SDS011;47868;51.326;6.550;2024-02-15T13:53:09;5.18;;;1.70;;
61915;SDS011;47868;51.326;6.550;2024-02-15T13:55:35;4.68;;;1.70;;
61915;SDS011;47868;51.326;6.550;2024-02-15T13:58:02;3.72;;;1.60;;
61915;SDS011;47868;51.326;6.550;2024-02-15T14:00:33;7.07;;;2.05;;
61915;SDS011;47868;51.326;6.550;2024-02-15T14:02:59;5.45;;;1.80;;
61915;SDS011;47868;51.326;6.550;2024-02-15T14:05:26;3.10;;;1.63;;
61915;SDS011;47868;51.326;6.550;2024-02-15T14:10:23;3.13;;;1.70;;
61915;SDS011;47868;51.326;6.550;2024-02-15T14:12:49;4.45;;;1.60;;
61915;SDS011;47868;51.326;6.550;2024-02-15T14:15:29;5.07;;;1.80;;
61915;SDS011;47868;51.326;6.550;2024-02-15T14:17:55;1.95;;;1.45;;
61915;SDS011;47868;51.326;6.550;2024-02-15T14:20:22;3.15;;;1.77;;
61915;SDS011;47868;51.326;6.550;2024-02-15T14:22:49;2.85;;;1.90;;
61915;SDS011;47868;51.326;6.550;2024-02-15T14:25:20;3.42;;;1.80;;
61915;SDS011;47868;51.326;6.550;2024-02-15T14:27:47;3.17;;;1.65;;
61915;SDS011;47868;51.326;6.550;2024-02-15T14:30:13;5.55;;;1.40;;
61915;SDS011;47868;51.326;6.550;2024-02-15T14:32:57;3.63;;;1.35;;
61915;SDS011;47868;51.326;6.550;2024-02-15T14:35:33;4.07;;;1.75;;
61915;SDS011;47868;51.326;6.550;2024-02-15T14:38:03;3.63;;;2.10;;
61915;SDS011;47868;51.326;6.550;2024-02-15T14:40:31;3.08;;;1.40;;
61915;SDS011;47868;51.326;6.550;2024-02-15T14:42:58;3.72;;;1.77;;
61915;SDS011;47868;51.326;6.550;2024-02-15T14:45:24;4.70;;;1.92;;
61915;SDS011;47868;51.326;6.550;2024-02-15T14:47:51;4.28;;;2.10;;
61915;SDS011;47868;51.326;6.550;2024-02-15T14:50:17;3.28;;;1.90;;
61915;SDS011;47868;51.326;6.550;2024-02-15T14:52:45;8.02;;;2.10;;
61915;SDS011;47868;51.326;6.550;2024-02-15T14:55:12;4.53;;;2.13;;
61915;SDS011;47868;51.326;6.550;2024-02-15T14:57:38;4.78;;;2.45;;
61915;SDS011;47868;51.326;6.550;2024-02-15T15:00:06;7.90;;;2.08;;
61915;SDS011;47868;51.326;6.550;2024-02-15T15:02:38;6.25;;;2.58;;
61915;SDS011;47868;51.326;6.550;2024-02-15T15:05:06;4.30;;;2.65;;
61915;SDS011;47868;51.326;6.550;2024-02-15T15:07:51;4.90;;;2.63;;
61915;SDS011;47868;51.326;6.550;2024-02-15T15:10:35;3.45;;;2.38;;
61915;SDS011;47868;51.326;6.550;2024-02-15T15:13:22;10.52;;;2.50;;
61915;SDS011;47868;51.326;6.550;2024-02-15T15:15:48;11.20;;;2.72;;
61915;SDS011;47868;51.326;6.550;2024-02-15T15:18:14;8.52;;;2.60;;